createdAt,value
2022-11-14T00:00:04.994Z,998.82
2022-11-14T00:01:05.000Z,998.79
2022-11-14T00:02:04.962Z,998.77
2022-11-14T00:03:05.021Z,998.78
2022-11-14T00:04:04.947Z,998.73
2022-11-14T00:05:04.941Z,998.72
2022-11-14T00:06:04.952Z,998.77
2022-11-14T00:07:04.989Z,998.76
2022-11-14T00:08:04.896Z,998.73
2022-11-14T00:09:04.893Z,998.73
2022-11-14T00:10:04.876Z,998.73
2022-11-14T00:11:04.877Z,998.78
2022-11-14T00:12:04.875Z,998.72
2022-11-14T00:13:04.833Z,998.72
2022-11-14T00:14:04.833Z,998.67
2022-11-14T00:15:04.823Z,998.67
2022-11-14T00:16:04.818Z,998.64
2022-11-14T00:17:04.817Z,998.72
2022-11-14T00:18:04.812Z,998.64
2022-11-14T00:19:04.774Z,998.63
2022-11-14T00:20:04.764Z,998.67
2022-11-14T00:21:04.756Z,998.69
2022-11-14T00:22:04.742Z,998.65
2022-11-14T00:23:04.733Z,998.68
2022-11-14T00:24:04.759Z,998.71
2022-11-14T00:25:04.704Z,998.70
2022-11-14T00:26:04.706Z,998.65
2022-11-14T00:27:04.684Z,998.79
2022-11-14T00:28:04.677Z,998.72
2022-11-14T00:29:04.716Z,998.66
2022-11-14T00:30:04.713Z,998.71
2022-11-14T00:31:04.659Z,998.71
2022-11-14T00:32:04.626Z,998.72
2022-11-14T00:33:04.623Z,998.71
2022-11-14T00:34:04.606Z,998.75
2022-11-14T00:35:04.598Z,998.73
2022-11-14T00:36:04.643Z,998.70
2022-11-14T00:37:04.575Z,998.71
2022-11-14T00:38:04.563Z,998.68
2022-11-14T00:39:04.543Z,998.66
2022-11-14T00:40:04.564Z,998.63
2022-11-14T00:41:04.560Z,998.61
2022-11-14T00:42:04.514Z,998.60
2022-11-14T00:43:04.526Z,998.64
2022-11-14T00:44:04.501Z,998.59
2022-11-14T00:45:04.493Z,998.61
2022-11-14T00:46:04.474Z,998.66
2022-11-14T00:47:04.474Z,998.61
2022-11-14T00:48:04.447Z,998.63
2022-11-14T00:49:04.436Z,998.65
2022-11-14T00:50:04.414Z,998.60
2022-11-14T00:51:04.415Z,998.54
2022-11-14T00:52:04.402Z,998.59
2022-11-14T00:53:04.437Z,998.56
2022-11-14T00:54:04.388Z,998.63
2022-11-14T00:55:04.366Z,998.62
2022-11-14T00:56:04.355Z,998.57
2022-11-14T00:57:04.337Z,998.60
2022-11-14T00:58:04.404Z,998.60
2022-11-14T00:59:04.344Z,998.57
2022-11-14T01:00:04.315Z,998.58
2022-11-14T01:01:04.533Z,998.56
2022-11-14T01:02:04.294Z,998.55
2022-11-14T01:03:04.267Z,998.60
2022-11-14T01:04:04.272Z,998.58
2022-11-14T01:05:04.277Z,998.53
2022-11-14T01:06:04.261Z,998.53
2022-11-14T01:07:04.229Z,998.51
2022-11-14T01:08:04.217Z,998.49
2022-11-14T01:09:04.272Z,998.48
2022-11-14T01:10:04.225Z,998.49
2022-11-14T01:11:04.206Z,998.48
2022-11-14T01:12:04.169Z,998.39
2022-11-14T01:13:04.177Z,998.36
2022-11-14T01:14:04.163Z,998.43
2022-11-14T01:15:04.140Z,998.43
2022-11-14T01:16:04.157Z,998.43
2022-11-14T01:17:04.137Z,998.40
2022-11-14T01:18:04.105Z,998.38
2022-11-14T01:19:04.087Z,998.39
2022-11-14T01:20:04.077Z,998.39
2022-11-14T01:21:04.087Z,998.38
2022-11-14T01:22:06.468Z,998.33
2022-11-14T01:23:04.048Z,998.33
2022-11-14T01:24:04.037Z,998.30
2022-11-14T01:25:04.035Z,998.33
2022-11-14T01:26:04.010Z,998.25
2022-11-14T01:27:03.998Z,998.23
2022-11-14T01:28:04.025Z,998.18
2022-11-14T01:29:03.984Z,998.22
2022-11-14T01:30:03.959Z,998.19
2022-11-14T01:31:03.947Z,998.18
2022-11-14T01:32:03.938Z,998.23
2022-11-14T01:33:03.935Z,998.17
2022-11-14T01:34:03.950Z,998.14
2022-11-14T01:35:03.907Z,998.24
2022-11-14T01:36:03.890Z,998.25
2022-11-14T01:37:03.879Z,998.22
2022-11-14T01:38:03.885Z,998.22
2022-11-14T01:39:03.859Z,998.19
2022-11-14T01:40:03.879Z,998.21
2022-11-14T01:41:03.851Z,998.23
2022-11-14T01:42:03.818Z,998.17
2022-11-14T01:43:03.810Z,998.07
2022-11-14T01:44:03.810Z,998.03
2022-11-14T01:45:03.788Z,998.10
2022-11-14T01:46:03.808Z,998.03
2022-11-14T01:47:03.779Z,997.97
2022-11-14T01:48:03.759Z,998.07
2022-11-14T01:49:03.739Z,997.93
2022-11-14T01:50:03.745Z,997.91
2022-11-14T01:51:03.754Z,997.89
2022-11-14T01:52:03.720Z,997.90
2022-11-14T01:53:03.699Z,997.83
2022-11-14T01:54:03.701Z,997.85
2022-11-14T01:55:03.680Z,997.84
2022-11-14T01:56:03.671Z,997.87
2022-11-14T01:57:03.690Z,997.91
2022-11-14T01:58:03.639Z,997.83
2022-11-14T01:59:03.632Z,997.89
2022-11-14T02:00:03.621Z,997.84
2022-11-14T02:01:03.654Z,997.96
2022-11-14T02:02:03.676Z,997.90
2022-11-14T02:03:03.590Z,997.82
2022-11-14T02:04:05.430Z,997.85
2022-11-14T02:05:03.570Z,997.85
2022-11-14T02:06:03.544Z,997.85
2022-11-14T02:07:03.636Z,997.84
2022-11-14T02:08:03.573Z,997.83
2022-11-14T02:09:03.536Z,997.71
2022-11-14T02:10:03.502Z,997.81
2022-11-14T02:11:03.495Z,997.81
2022-11-14T02:12:03.482Z,997.72
2022-11-14T02:13:03.527Z,997.65
2022-11-14T02:14:03.653Z,997.74
2022-11-14T02:15:03.473Z,997.62
2022-11-14T02:16:03.517Z,997.75
2022-11-14T02:17:28.027Z,997.67
2022-11-14T02:18:04.413Z,997.74
2022-11-14T02:19:03.402Z,997.65
2022-11-14T02:20:05.323Z,997.68
2022-11-14T02:21:03.379Z,997.69
2022-11-14T02:22:03.418Z,997.65
2022-11-14T02:23:03.372Z,997.65
2022-11-14T02:24:03.341Z,997.61
2022-11-14T02:25:03.340Z,997.62
2022-11-14T02:26:03.346Z,997.66
2022-11-14T02:27:03.319Z,997.66
2022-11-14T02:28:03.301Z,997.70
2022-11-14T02:29:03.312Z,997.76
2022-11-14T02:30:03.301Z,997.69
2022-11-14T02:31:03.340Z,997.78
2022-11-14T02:32:08.087Z,997.67
2022-11-14T02:33:11.923Z,997.74
2022-11-14T02:34:04.242Z,997.68
2022-11-14T02:35:03.254Z,997.62
2022-11-14T02:36:03.204Z,997.62
2022-11-14T02:37:03.252Z,997.62
2022-11-14T02:38:03.181Z,997.62
2022-11-14T02:39:03.183Z,997.56
2022-11-14T02:40:03.165Z,997.61
2022-11-14T02:41:03.160Z,997.56
2022-11-14T02:42:03.140Z,997.54
2022-11-14T02:43:03.190Z,997.52
2022-11-14T02:44:03.122Z,997.50
2022-11-14T02:45:03.115Z,997.48
2022-11-14T02:46:05.559Z,997.52
2022-11-14T02:47:03.096Z,997.52
2022-11-14T02:48:03.063Z,997.40
2022-11-14T02:49:03.074Z,997.53
2022-11-14T02:50:03.076Z,997.46
2022-11-14T02:51:03.044Z,997.51
2022-11-14T02:52:03.038Z,997.42
2022-11-14T02:53:03.081Z,997.44
2022-11-14T02:54:03.047Z,997.44
2022-11-14T02:55:03.024Z,997.36
2022-11-14T02:56:02.977Z,997.40
2022-11-14T02:57:02.973Z,997.35
2022-11-14T02:58:02.965Z,997.39
2022-11-14T02:59:02.954Z,997.36
2022-11-14T03:00:02.957Z,997.35
2022-11-14T03:01:19.802Z,997.33
2022-11-14T03:02:03.959Z,997.40
2022-11-14T03:03:02.908Z,997.43
2022-11-14T03:04:02.884Z,997.36
2022-11-14T03:05:02.873Z,997.31
2022-11-14T03:06:02.894Z,997.34
2022-11-14T03:07:02.884Z,997.31
2022-11-14T03:08:02.896Z,997.38
2022-11-14T03:09:02.835Z,997.24
2022-11-14T03:10:02.836Z,997.23
2022-11-14T03:11:02.837Z,997.19
2022-11-14T03:12:02.875Z,997.22
2022-11-14T03:13:02.813Z,997.22
2022-11-14T03:14:02.776Z,997.15
2022-11-14T03:15:02.766Z,997.18
2022-11-14T03:16:02.770Z,997.15
2022-11-14T03:17:02.737Z,997.13
2022-11-14T03:18:02.759Z,997.14
2022-11-14T03:19:02.725Z,997.09
2022-11-14T03:20:02.724Z,997.09
2022-11-14T03:21:02.719Z,997.11
2022-11-14T03:22:02.686Z,997.07
2022-11-14T03:23:02.703Z,997.17
2022-11-14T03:24:02.658Z,997.09
2022-11-14T03:25:02.691Z,997.10
2022-11-14T03:26:02.635Z,997.06
2022-11-14T03:27:02.648Z,997.07
2022-11-14T03:28:02.647Z,997.06
2022-11-14T03:29:02.656Z,997.11
2022-11-14T03:30:02.608Z,997.12
2022-11-14T03:31:02.587Z,997.11
2022-11-14T03:32:02.574Z,997.04
2022-11-14T03:33:02.574Z,997.05
2022-11-14T03:34:02.549Z,997.12
2022-11-14T03:35:02.603Z,997.12
2022-11-14T03:36:02.526Z,997.08
2022-11-14T03:37:02.530Z,997.02
2022-11-14T03:38:02.508Z,997.07
2022-11-14T03:39:02.489Z,997.06
2022-11-14T03:40:02.480Z,997.09
2022-11-14T03:41:02.512Z,997.12
2022-11-14T03:42:02.454Z,997.08
2022-11-14T03:43:02.439Z,997.10
2022-11-14T03:44:02.454Z,997.07
2022-11-14T03:45:02.418Z,997.06
2022-11-14T03:46:02.419Z,997.03
2022-11-14T03:47:02.467Z,997.09
2022-11-14T03:48:02.388Z,997.07
2022-11-14T03:49:02.377Z,997.05
2022-11-14T03:50:02.369Z,997.04
2022-11-14T03:51:02.374Z,996.97
2022-11-14T03:52:02.379Z,996.97
2022-11-14T03:53:02.382Z,997.01
2022-11-14T03:54:02.321Z,997.00
2022-11-14T03:55:02.312Z,996.97
2022-11-14T03:56:02.297Z,997.03
2022-11-14T03:57:02.291Z,997.04
2022-11-14T03:58:02.317Z,997.04
2022-11-14T03:59:02.287Z,997.04
2022-11-14T04:00:02.259Z,997.01
2022-11-14T04:01:02.327Z,997.04
2022-11-14T04:02:02.246Z,997.03
2022-11-14T04:03:02.210Z,996.99
2022-11-14T04:04:02.202Z,996.99
2022-11-14T04:05:02.221Z,997.00
2022-11-14T04:06:02.187Z,996.92
2022-11-14T04:07:02.265Z,996.97
2022-11-14T04:08:02.155Z,997.04
2022-11-14T04:09:02.146Z,996.97
2022-11-14T04:10:02.128Z,996.92
2022-11-14T04:11:02.141Z,996.93
2022-11-14T04:12:02.115Z,996.97
2022-11-14T04:13:02.106Z,996.97
2022-11-14T04:14:02.110Z,996.88
2022-11-14T04:15:02.080Z,996.90
2022-11-14T04:16:02.090Z,996.88
2022-11-14T04:17:02.067Z,996.93
2022-11-14T04:18:02.068Z,996.86
2022-11-14T04:19:02.039Z,996.94
2022-11-14T04:20:02.021Z,996.88
2022-11-14T04:21:02.021Z,996.79
2022-11-14T04:22:02.030Z,996.84
2022-11-14T04:23:01.990Z,996.84
2022-11-14T04:24:03.903Z,996.82
2022-11-14T04:25:02.960Z,996.80
2022-11-14T04:26:01.950Z,996.77
2022-11-14T04:27:01.971Z,996.75
2022-11-14T04:28:01.930Z,996.76
2022-11-14T04:29:01.934Z,996.76
2022-11-14T04:30:01.900Z,996.75
2022-11-14T04:31:01.881Z,996.73
2022-11-14T04:32:01.881Z,996.77
2022-11-14T04:33:01.896Z,996.74
2022-11-14T04:34:01.867Z,996.75
2022-11-14T04:35:01.947Z,996.77
2022-11-14T04:36:01.831Z,996.70
2022-11-14T04:37:01.830Z,996.69
2022-11-14T04:38:01.841Z,996.72
2022-11-14T04:39:01.841Z,996.72
2022-11-14T04:40:01.815Z,996.73
2022-11-14T04:41:01.792Z,996.68
2022-11-14T04:42:01.766Z,996.79
2022-11-14T04:43:01.752Z,996.80
2022-11-14T04:44:01.786Z,996.75
2022-11-14T04:45:01.789Z,996.70
2022-11-14T04:46:01.733Z,996.66
2022-11-14T04:47:01.711Z,996.70
2022-11-14T04:48:01.702Z,996.69
2022-11-14T04:49:01.743Z,996.69
2022-11-14T04:50:01.693Z,996.67
2022-11-14T04:51:01.680Z,996.67
2022-11-14T04:52:01.696Z,996.61
2022-11-14T04:53:01.643Z,996.64
2022-11-14T04:54:01.633Z,996.61
2022-11-14T04:55:01.641Z,996.63
2022-11-14T04:56:01.603Z,996.60
2022-11-14T04:57:01.596Z,996.64
2022-11-14T04:58:01.592Z,996.63
2022-11-14T04:59:01.584Z,996.66
2022-11-14T05:00:01.570Z,996.61
2022-11-14T05:01:01.613Z,996.66
2022-11-14T05:02:01.562Z,996.66
2022-11-14T05:03:01.558Z,996.73
2022-11-14T05:04:01.514Z,996.71
2022-11-14T05:05:01.503Z,996.65
2022-11-14T05:06:01.500Z,996.71
2022-11-14T05:07:01.571Z,996.68
2022-11-14T05:08:01.483Z,996.66
2022-11-14T05:09:01.518Z,996.67
2022-11-14T05:10:01.444Z,996.64
2022-11-14T05:11:01.450Z,996.59
2022-11-14T05:12:01.425Z,996.61
2022-11-14T05:13:01.445Z,996.64
2022-11-14T05:14:01.403Z,996.59
2022-11-14T05:15:01.409Z,996.56
2022-11-14T05:16:01.373Z,996.52
2022-11-14T05:17:01.402Z,996.55
2022-11-14T05:18:01.353Z,996.55
2022-11-14T05:19:01.372Z,996.54
2022-11-14T05:20:01.331Z,996.53
2022-11-14T05:21:01.332Z,996.51
2022-11-14T05:22:01.314Z,996.46
2022-11-14T05:23:01.305Z,996.52
2022-11-14T05:24:01.316Z,996.42
2022-11-14T05:25:01.277Z,996.39
2022-11-14T05:26:01.258Z,996.44
2022-11-14T05:27:01.275Z,996.40
2022-11-14T05:28:01.248Z,996.45
2022-11-14T05:29:01.236Z,996.44
2022-11-14T05:30:01.241Z,996.51
2022-11-14T05:31:01.214Z,996.40
2022-11-14T05:32:01.224Z,996.43
2022-11-14T05:33:01.192Z,996.43
2022-11-14T05:34:01.177Z,996.49
2022-11-14T05:35:01.207Z,996.47
2022-11-14T05:36:01.162Z,996.45
2022-11-14T05:37:01.137Z,996.49
2022-11-14T05:38:01.151Z,996.41
2022-11-14T05:39:01.118Z,996.43
2022-11-14T05:40:01.118Z,996.43
2022-11-14T05:41:01.138Z,996.48
2022-11-14T05:42:01.076Z,996.44
2022-11-14T05:43:01.074Z,996.45
2022-11-14T05:44:01.062Z,996.49
2022-11-14T05:45:01.047Z,996.51
2022-11-14T05:46:01.083Z,996.53
2022-11-14T05:47:01.036Z,996.52
2022-11-14T05:48:01.015Z,996.49
2022-11-14T05:49:01.006Z,996.47
2022-11-14T05:50:00.988Z,996.59
2022-11-14T05:51:00.997Z,996.48
2022-11-14T05:52:00.999Z,996.51
2022-11-14T05:53:00.956Z,996.52
2022-11-14T05:54:00.937Z,996.54
2022-11-14T05:55:00.965Z,996.49
2022-11-14T05:56:00.926Z,996.53
2022-11-14T05:57:00.960Z,996.51
2022-11-14T05:58:00.920Z,996.50
2022-11-14T05:59:00.903Z,996.58
2022-11-14T06:00:00.878Z,996.55
2022-11-14T06:01:00.866Z,996.50
2022-11-14T06:02:00.912Z,996.63
2022-11-14T06:03:00.877Z,996.56
2022-11-14T06:04:00.847Z,996.56
2022-11-14T06:05:00.824Z,996.60
2022-11-14T06:06:00.827Z,996.65
2022-11-14T06:07:00.838Z,996.64
2022-11-14T06:08:00.807Z,996.59
2022-11-14T06:09:00.888Z,996.62
2022-11-14T06:10:00.768Z,996.57
2022-11-14T06:11:00.768Z,996.61
2022-11-14T06:12:00.750Z,996.63
2022-11-14T06:13:00.749Z,996.71
2022-11-14T06:14:00.717Z,996.72
2022-11-14T06:15:00.752Z,996.72
2022-11-14T06:16:00.699Z,996.72
2022-11-14T06:17:00.687Z,996.71
2022-11-14T06:18:00.680Z,996.71
2022-11-14T06:19:00.665Z,996.63
2022-11-14T06:20:00.692Z,996.73
2022-11-14T06:21:00.660Z,996.76
2022-11-14T06:22:00.635Z,996.82
2022-11-14T06:23:00.618Z,996.85
2022-11-14T06:24:00.608Z,996.80
2022-11-14T06:25:00.601Z,996.83
2022-11-14T06:26:00.622Z,996.87
2022-11-14T06:27:00.570Z,996.85
2022-11-14T06:28:00.560Z,996.82
2022-11-14T06:29:00.549Z,996.85
2022-11-14T06:30:00.559Z,996.83
2022-11-14T06:31:00.523Z,996.86
2022-11-14T06:32:00.539Z,996.90
2022-11-14T06:33:00.498Z,996.86
2022-11-14T06:34:00.499Z,996.79
2022-11-14T06:35:00.475Z,996.89
2022-11-14T06:36:00.484Z,996.79
2022-11-14T06:37:00.467Z,996.82
2022-11-14T06:38:00.500Z,996.81
2022-11-14T06:39:00.427Z,996.82
2022-11-14T06:40:00.429Z,996.73
2022-11-14T06:41:00.414Z,996.75
2022-11-14T06:42:00.418Z,996.71
2022-11-14T06:43:00.683Z,996.78
2022-11-14T06:44:00.736Z,996.70
2022-11-14T06:45:00.360Z,996.71
2022-11-14T06:46:00.352Z,996.74
2022-11-14T06:47:00.351Z,996.81
2022-11-14T06:48:00.330Z,996.80
2022-11-14T06:49:00.370Z,996.78
2022-11-14T06:50:00.314Z,996.81
2022-11-14T06:51:00.299Z,996.79
2022-11-14T06:52:00.290Z,996.79
2022-11-14T06:53:00.270Z,996.81
2022-11-14T06:54:00.280Z,996.89
2022-11-14T06:55:00.331Z,996.84
2022-11-14T06:56:00.262Z,996.80
2022-11-14T06:57:00.222Z,996.83
2022-11-14T06:58:00.213Z,996.83
2022-11-14T06:59:00.203Z,996.81
2022-11-14T07:00:00.192Z,996.80
2022-11-14T07:01:00.216Z,996.79
2022-11-14T07:02:00.192Z,996.80
2022-11-14T07:03:00.218Z,996.78
2022-11-14T07:04:00.174Z,996.80
2022-11-14T07:05:00.142Z,996.75
2022-11-14T07:06:00.142Z,996.75
2022-11-14T07:07:00.246Z,996.86
2022-11-14T07:08:01.052Z,996.90
2022-11-14T07:09:00.128Z,996.85
2022-11-14T07:10:00.097Z,996.85
2022-11-14T07:11:00.069Z,996.87
2022-11-14T07:12:00.079Z,996.91
2022-11-14T07:13:00.079Z,996.86
2022-11-14T07:14:00.045Z,996.92
2022-11-14T07:15:00.031Z,996.90
2022-11-14T07:16:00.013Z,996.99
2022-11-14T07:17:00.005Z,996.91
2022-11-14T07:18:00.022Z,996.87
2022-11-14T07:18:59.978Z,996.88
2022-11-14T07:19:59.963Z,996.95
2022-11-14T07:20:59.953Z,996.93
2022-11-14T07:21:59.944Z,996.90
2022-11-14T07:22:59.942Z,996.90
2022-11-14T07:23:59.964Z,996.81
2022-11-14T07:24:59.939Z,996.91
2022-11-14T07:25:59.902Z,996.87
2022-11-14T07:26:59.887Z,996.79
2022-11-14T07:27:59.874Z,996.78
2022-11-14T07:29:02.418Z,996.81
2022-11-14T07:29:59.867Z,996.77
2022-11-14T07:30:59.856Z,996.78
2022-11-14T07:31:59.845Z,996.82
2022-11-14T07:32:59.813Z,996.82
2022-11-14T07:33:59.823Z,996.82
2022-11-14T07:35:02.319Z,996.76
2022-11-14T07:35:59.808Z,996.74
2022-11-14T07:36:59.786Z,996.73
2022-11-14T07:37:59.764Z,996.77
2022-11-14T07:38:59.745Z,996.81
2022-11-14T07:39:59.743Z,996.81
2022-11-14T07:41:00.262Z,996.79
2022-11-14T07:41:59.717Z,996.79
2022-11-14T07:42:59.735Z,996.78
2022-11-14T07:43:59.753Z,996.84
2022-11-14T07:44:59.715Z,996.88
2022-11-14T07:45:59.707Z,996.92
2022-11-14T07:46:59.760Z,996.96
2022-11-14T07:47:59.704Z,996.91
2022-11-14T07:48:59.696Z,996.83
2022-11-14T07:49:59.635Z,996.92
2022-11-14T07:50:59.621Z,996.79
2022-11-14T07:51:59.615Z,996.83
2022-11-14T07:52:59.615Z,996.77
2022-11-14T07:53:59.575Z,996.82
2022-11-14T07:54:59.557Z,996.87
2022-11-14T07:55:59.544Z,996.89
2022-11-14T07:56:59.560Z,996.88
2022-11-14T07:57:59.526Z,996.84
2022-11-14T07:58:59.570Z,996.84
2022-11-14T07:59:59.509Z,996.84
2022-11-14T08:00:59.531Z,996.90
2022-11-14T08:01:59.483Z,996.92
2022-11-14T08:02:59.513Z,996.92
2022-11-14T08:03:59.456Z,996.93
2022-11-14T08:04:59.493Z,996.98
2022-11-14T08:05:59.427Z,997.02
2022-11-14T08:06:59.484Z,996.98
2022-11-14T08:07:59.406Z,996.87
2022-11-14T08:08:59.411Z,996.94
2022-11-14T08:09:59.384Z,996.96
2022-11-14T08:10:59.450Z,996.93
2022-11-14T08:11:59.357Z,996.94
2022-11-14T08:13:11.044Z,997.00
2022-11-14T08:14:00.337Z,996.92
2022-11-14T08:14:59.401Z,996.96
2022-11-14T08:15:59.347Z,996.91
2022-11-14T08:16:59.313Z,996.90
2022-11-14T08:17:59.313Z,996.78
2022-11-14T08:18:59.311Z,996.75
2022-11-14T08:19:59.269Z,996.71
2022-11-14T08:20:59.361Z,996.76
2022-11-14T08:21:59.280Z,996.85
2022-11-14T08:22:59.268Z,996.86
2022-11-14T08:23:59.234Z,996.88
2022-11-14T08:24:59.257Z,996.89
2022-11-14T08:25:59.211Z,996.81
2022-11-14T08:26:59.198Z,996.88
2022-11-14T08:27:59.208Z,996.84
2022-11-14T08:28:59.191Z,996.85
2022-11-14T08:29:59.203Z,996.92
2022-11-14T08:30:59.155Z,996.93
2022-11-14T08:32:00.060Z,996.94
2022-11-14T08:32:59.129Z,996.92
2022-11-14T08:33:59.130Z,996.96
2022-11-14T08:34:59.101Z,996.95
2022-11-14T08:35:59.144Z,996.98
2022-11-14T08:36:59.084Z,996.95
2022-11-14T08:37:59.061Z,996.89
2022-11-14T08:39:02.123Z,996.83
2022-11-14T08:39:59.044Z,996.87
2022-11-14T08:40:59.075Z,996.85
2022-11-14T08:41:59.034Z,996.84
2022-11-14T08:42:59.001Z,996.85
2022-11-14T08:43:58.992Z,996.83
2022-11-14T08:44:59.031Z,996.87
2022-11-14T08:46:01.641Z,996.87
2022-11-14T08:46:58.961Z,996.81
2022-11-14T08:47:58.965Z,996.86
2022-11-14T08:48:58.941Z,996.79
2022-11-14T08:49:58.919Z,996.83
2022-11-14T08:50:58.972Z,996.87
2022-11-14T08:51:58.929Z,996.89
2022-11-14T08:52:58.901Z,996.83
2022-11-14T08:53:58.883Z,996.85
2022-11-14T08:54:58.882Z,996.83
2022-11-14T08:55:58.860Z,996.90
2022-11-14T08:56:58.860Z,996.86
2022-11-14T08:57:58.841Z,996.85
2022-11-14T08:58:58.841Z,996.89
2022-11-14T08:59:58.812Z,996.92
2022-11-14T09:00:58.800Z,996.92
2022-11-14T09:01:58.843Z,996.93
2022-11-14T09:02:58.897Z,996.85
2022-11-14T09:04:00.170Z,996.86
2022-11-14T09:04:58.841Z,996.83
2022-11-14T09:05:58.762Z,996.88
2022-11-14T09:06:58.794Z,996.95
2022-11-14T09:07:58.744Z,996.94
2022-11-14T09:08:58.703Z,996.93
2022-11-14T09:09:58.705Z,996.94
2022-11-14T09:11:04.224Z,996.98
2022-11-14T09:11:59.673Z,996.91
2022-11-14T09:12:58.663Z,996.99
2022-11-14T09:13:58.681Z,997.04
2022-11-14T09:14:58.665Z,997.09
2022-11-14T09:15:58.635Z,997.05
2022-11-14T09:17:03.138Z,997.09
2022-11-14T09:17:59.613Z,997.00
2022-11-14T09:18:58.641Z,997.05
2022-11-14T09:19:58.595Z,997.04
2022-11-14T09:20:58.564Z,997.04
2022-11-14T09:21:58.565Z,997.12
2022-11-14T09:22:58.560Z,997.10
2022-11-14T09:24:01.669Z,997.08
2022-11-14T09:24:58.545Z,997.10
2022-11-14T09:25:58.517Z,997.05
2022-11-14T09:26:58.532Z,997.09
2022-11-14T09:27:58.509Z,997.05
2022-11-14T09:28:58.497Z,997.03
2022-11-14T09:29:58.501Z,997.07
2022-11-14T09:30:58.477Z,997.08
2022-11-14T09:31:58.436Z,997.08
2022-11-14T09:32:58.435Z,997.07
2022-11-14T09:33:58.436Z,997.03
2022-11-14T09:34:58.405Z,997.05
2022-11-14T09:35:58.444Z,997.04
2022-11-14T09:36:58.396Z,997.02
2022-11-14T09:37:58.424Z,997.03
2022-11-14T09:38:58.356Z,996.99
2022-11-14T09:39:58.358Z,996.90
2022-11-14T09:40:58.361Z,996.89
2022-11-14T09:41:58.354Z,996.90
2022-11-14T09:42:58.308Z,996.87
2022-11-14T09:43:58.308Z,996.86
2022-11-14T09:44:58.308Z,996.84
2022-11-14T09:45:58.306Z,996.85
2022-11-14T09:46:58.316Z,996.85
2022-11-14T09:47:58.256Z,996.80
2022-11-14T09:48:58.310Z,996.79
2022-11-14T09:49:58.249Z,996.92
2022-11-14T09:50:58.229Z,996.76
2022-11-14T09:51:58.258Z,996.78
2022-11-14T09:52:58.303Z,996.74
2022-11-14T09:53:58.246Z,996.74
2022-11-14T09:54:58.241Z,996.72
2022-11-14T09:55:58.160Z,996.71
2022-11-14T09:56:58.149Z,996.73
2022-11-14T09:57:58.140Z,996.68
2022-11-14T09:58:58.151Z,996.69
2022-11-14T09:59:58.127Z,996.71
2022-11-14T10:00:58.110Z,996.64
2022-11-14T10:01:58.137Z,996.67
2022-11-14T10:02:58.101Z,996.54
2022-11-14T10:03:58.088Z,996.54
2022-11-14T10:04:58.060Z,996.57
2022-11-14T10:05:58.055Z,996.54
2022-11-14T10:06:58.085Z,996.55
2022-11-14T10:07:58.029Z,996.54
2022-11-14T10:08:58.032Z,996.53
2022-11-14T10:09:58.020Z,996.62
2022-11-14T10:10:57.991Z,996.64
2022-11-14T10:11:57.980Z,996.65
2022-11-14T10:12:57.961Z,996.63
2022-11-14T10:13:57.950Z,996.66
2022-11-14T10:14:57.939Z,996.67
2022-11-14T10:15:57.950Z,996.59
2022-11-14T10:16:57.944Z,996.61
2022-11-14T10:17:57.925Z,996.62
2022-11-14T10:18:57.899Z,996.60
2022-11-14T10:19:57.883Z,996.67
2022-11-14T10:20:57.972Z,996.58
2022-11-14T10:21:57.863Z,996.54
2022-11-14T10:23:01.411Z,996.59
2022-11-14T10:23:57.833Z,996.58
2022-11-14T10:24:57.837Z,996.50
2022-11-14T10:25:57.825Z,996.47
2022-11-14T10:26:57.832Z,996.45
2022-11-14T10:28:03.855Z,996.44
2022-11-14T10:28:58.804Z,996.39
2022-11-14T10:29:57.774Z,996.42
2022-11-14T10:30:57.764Z,996.49
2022-11-14T10:31:57.762Z,996.37
2022-11-14T10:32:57.754Z,996.38
2022-11-14T10:33:57.726Z,996.38
2022-11-14T10:34:57.720Z,996.39
2022-11-14T10:35:57.738Z,996.32
2022-11-14T10:36:57.683Z,996.35
2022-11-14T10:37:57.713Z,996.33
2022-11-14T10:38:57.665Z,996.40
2022-11-14T10:39:57.655Z,996.42
2022-11-14T10:40:57.653Z,996.37
2022-11-14T10:42:01.006Z,996.36
2022-11-14T10:42:58.649Z,996.37
2022-11-14T10:43:57.661Z,996.38
2022-11-14T10:44:57.606Z,996.41
2022-11-14T10:45:57.584Z,996.38
2022-11-14T10:46:57.583Z,996.40
2022-11-14T10:47:57.567Z,996.37
2022-11-14T10:49:00.090Z,996.33
2022-11-14T10:49:57.535Z,996.30
2022-11-14T10:50:57.538Z,996.31
2022-11-14T10:51:57.517Z,996.32
2022-11-14T10:52:57.506Z,996.30
2022-11-14T10:53:57.496Z,996.17
2022-11-14T10:54:57.546Z,996.17
2022-11-14T10:56:04.021Z,996.16
2022-11-14T10:56:58.808Z,996.13
2022-11-14T10:57:57.454Z,996.15
2022-11-14T10:58:57.453Z,996.15
2022-11-14T10:59:57.428Z,996.15
2022-11-14T11:00:57.450Z,996.17
2022-11-14T11:01:57.402Z,996.15
2022-11-14T11:02:57.389Z,996.15
2022-11-14T11:03:57.430Z,996.07
2022-11-14T11:04:57.368Z,996.09
2022-11-14T11:05:57.360Z,996.08
2022-11-14T11:06:57.396Z,996.05
2022-11-14T11:08:02.843Z,996.07
2022-11-14T11:08:58.381Z,996.09
2022-11-14T11:09:57.309Z,996.07
2022-11-14T11:10:57.306Z,996.02
2022-11-14T11:11:57.312Z,996.03
2022-11-14T11:12:57.386Z,996.07
2022-11-14T11:13:57.260Z,996.11
2022-11-14T11:14:57.253Z,996.08
2022-11-14T11:15:57.253Z,996.08
2022-11-14T11:16:57.232Z,996.07
2022-11-14T11:17:57.251Z,996.07
2022-11-14T11:18:57.214Z,996.05
2022-11-14T11:19:57.191Z,996.05
2022-11-14T11:20:57.201Z,996.05
2022-11-14T11:21:57.172Z,996.06
2022-11-14T11:22:59.754Z,996.04
2022-11-14T11:23:58.175Z,996.07
2022-11-14T11:24:57.142Z,996.03
2022-11-14T11:25:57.142Z,995.95
2022-11-14T11:26:57.112Z,995.99
2022-11-14T11:27:57.100Z,995.96
2022-11-14T11:28:57.089Z,995.97
2022-11-14T11:29:57.092Z,995.97
2022-11-14T11:30:57.168Z,995.94
2022-11-14T11:31:57.055Z,995.87
2022-11-14T11:32:57.052Z,995.87
2022-11-14T11:33:57.033Z,995.87
2022-11-14T11:34:57.062Z,995.87
2022-11-14T11:35:57.001Z,995.90
2022-11-14T11:36:56.992Z,995.90
2022-11-14T11:37:56.984Z,995.95
2022-11-14T11:38:56.971Z,995.95
2022-11-14T11:39:56.966Z,995.93
2022-11-14T11:40:56.973Z,995.88
2022-11-14T11:42:10.248Z,995.87
2022-11-14T11:43:37.895Z,995.85
2022-11-14T11:43:58.333Z,995.81
2022-11-14T11:44:56.905Z,995.78
2022-11-14T11:45:56.883Z,995.77
2022-11-14T11:46:56.922Z,995.77
2022-11-14T11:47:56.865Z,995.81
2022-11-14T11:48:56.865Z,995.78
2022-11-14T11:49:56.845Z,995.73
2022-11-14T11:50:56.824Z,995.76
2022-11-14T11:51:56.814Z,995.74
2022-11-14T11:52:56.826Z,995.71
2022-11-14T11:53:56.801Z,995.70
2022-11-14T11:54:56.796Z,995.70
2022-11-14T11:55:56.776Z,995.65
2022-11-14T11:56:56.755Z,995.65
2022-11-14T11:57:56.757Z,995.61
2022-11-14T11:58:56.786Z,995.57
2022-11-14T11:59:56.716Z,995.61
2022-11-14T12:00:56.742Z,995.56
2022-11-14T12:01:56.739Z,995.57
2022-11-14T12:02:56.717Z,995.49
2022-11-14T12:03:56.731Z,995.51
2022-11-14T12:04:56.695Z,995.50
2022-11-14T12:05:56.675Z,995.47
2022-11-14T12:06:56.701Z,995.46
2022-11-14T12:07:56.638Z,995.45
2022-11-14T12:08:56.619Z,995.43
2022-11-14T12:10:10.286Z,995.45
2022-11-14T12:10:57.611Z,995.41
2022-11-14T12:11:56.588Z,995.33
2022-11-14T12:12:56.584Z,995.37
2022-11-14T12:13:56.583Z,995.49
2022-11-14T12:14:56.558Z,995.45
2022-11-14T12:15:56.591Z,995.47
2022-11-14T12:16:56.520Z,995.56
2022-11-14T12:17:56.525Z,995.54
2022-11-14T12:18:56.507Z,995.53
2022-11-14T12:19:56.512Z,995.52
2022-11-14T12:20:56.489Z,995.52
2022-11-14T12:21:58.890Z,995.52
2022-11-14T12:22:56.466Z,995.45
2022-11-14T12:23:56.458Z,995.48
2022-11-14T12:24:56.438Z,995.42
2022-11-14T12:25:56.432Z,995.40
2022-11-14T12:26:56.402Z,995.41
2022-11-14T12:27:56.481Z,995.41